Accueil
METAR-TAF:

METAR-TAF

Aéroports :

Community_Airport

Owosso, Michigan, États-Unis

latitude: 42-59-34N, longitude: 084-08-20W, altitude: 224 m

Observation

Le bulletin a été fait il y a 30 minutes, à 08:35 UTC
Vent 3 kt de est/nord-est
Température 15°C
Humidité 82%
Pression 1009 hPa
Visibilité: 11.3 km
Nuages épars à une hauteur de 2900 ft
Nuages fragmentés à une hauteur de 6500 ft
Ciel couvert à une hauteur de 8500 ft
pluie

METAR: KRNP 210835Z AUTO 06003KT 7SM RA SCT029 BKN065 OVC085 15/12 A2979 RMK AO2 T01470120

Heure: 05:05 (09:05 UTC)


TAF: absent

Observations et prévisions météorologiques de plus de 4000 aéroports (messages METAR et TAF).

Les stations disponibles sont représentées par des disques jaunes et rouges sur la carte.

Passer la souris dessus pour voir le nom de la station.

Cliquer dessus pour voir les observations et prévisions météorologiques.

Pour changer de carte: cliquez sur les boutons verts avec une croix noire pour zoomer, sur le bouton vert avec un tiret pour effectuer un zoom arrière, ou sur les flèches vertes pour les cartes adjacentes.


METAR-TAF: